sensor_id;sensor_type;location;lat;lon;timestamp;pressure;altitude;pressure_sealevel;temperature;humidity
11676;BME280;5894;42.768;23.404;2023-01-08T00:00:04;96216.31;;;2.00;100.00
11676;BME280;5894;42.768;23.404;2023-01-08T00:02:37;96183.59;;;1.76;100.00
11676;BME280;5894;42.768;23.404;2023-01-08T00:05:06;96221.50;;;2.00;100.00
11676;BME280;5894;42.768;23.404;2023-01-08T00:07:35;96210.13;;;1.90;100.00
11676;BME280;5894;42.768;23.404;2023-01-08T00:10:02;96185.28;;;1.70;100.00
11676;BME280;5894;42.768;23.404;2023-01-08T00:12:29;96227.97;;;1.98;100.00
11676;BME280;5894;42.768;23.404;2023-01-08T00:14:56;96222.84;;;1.74;100.00
11676;BME280;5894;42.768;23.404;2023-01-08T00:17:23;96223.69;;;1.92;100.00
11676;BME280;5894;42.768;23.404;2023-01-08T00:19:49;96230.13;;;1.89;100.00
11676;BME280;5894;42.768;23.404;2023-01-08T00:22:18;96221.56;;;1.77;100.00
11676;BME280;5894;42.768;23.404;2023-01-08T00:24:44;96188.03;;;1.64;100.00
11676;BME280;5894;42.768;23.404;2023-01-08T00:27:11;96213.31;;;1.80;100.00
11676;BME280;5894;42.768;23.404;2023-01-08T00:29:38;96180.34;;;1.45;100.00
11676;BME280;5894;42.768;23.404;2023-01-08T00:32:05;96182.72;;;1.47;100.00
11676;BME280;5894;42.768;23.404;2023-01-08T00:34:31;96222.16;;;1.67;100.00
11676;BME280;5894;42.768;23.404;2023-01-08T00:36:58;96109.50;;;0.87;100.00
11676;BME280;5894;42.768;23.404;2023-01-08T00:39:26;96212.81;;;1.55;100.00
11676;BME280;5894;42.768;23.404;2023-01-08T00:41:53;96230.66;;;1.63;100.00
11676;BME280;5894;42.768;23.404;2023-01-08T00:44:20;96183.88;;;1.28;100.00
11676;BME280;5894;42.768;23.404;2023-01-08T00:46:46;96232.03;;;1.54;100.00
11676;BME280;5894;42.768;23.404;2023-01-08T00:49:13;96230.44;;;1.53;100.00
11676;BME280;5894;42.768;23.404;2023-01-08T00:51:40;96205.81;;;1.43;100.00
11676;BME280;5894;42.768;23.404;2023-01-08T00:54:08;96256.09;;;1.49;100.00
11676;BME280;5894;42.768;23.404;2023-01-08T00:56:37;96194.41;;;1.21;100.00
11676;BME280;5894;42.768;23.404;2023-01-08T00:59:04;96182.22;;;1.10;100.00
11676;BME280;5894;42.768;23.404;2023-01-08T01:01:30;96236.88;;;1.38;100.00
11676;BME280;5894;42.768;23.404;2023-01-08T01:03:57;96235.97;;;1.33;100.00
11676;BME280;5894;42.768;23.404;2023-01-08T01:06:24;96232.69;;;1.26;100.00
11676;BME280;5894;42.768;23.404;2023-01-08T01:08:51;96237.88;;;1.26;100.00
11676;BME280;5894;42.768;23.404;2023-01-08T01:11:19;96236.19;;;1.31;100.00
11676;BME280;5894;42.768;23.404;2023-01-08T01:13:48;96172.25;;;0.84;100.00
11676;BME280;5894;42.768;23.404;2023-01-08T01:16:15;96231.00;;;1.20;100.00
11676;BME280;5894;42.768;23.404;2023-01-08T01:18:42;96229.06;;;1.15;100.00
11676;BME280;5894;42.768;23.404;2023-01-08T01:21:10;96185.94;;;0.91;100.00
11676;BME280;5894;42.768;23.404;2023-01-08T01:23:38;96225.13;;;1.13;100.00
11676;BME280;5894;42.768;23.404;2023-01-08T01:26:04;96200.59;;;0.85;100.00
11676;BME280;5894;42.768;23.404;2023-01-08T01:28:31;96215.41;;;1.08;100.00
11676;BME280;5894;42.768;23.404;2023-01-08T01:30:59;96218.47;;;1.17;100.00
11676;BME280;5894;42.768;23.404;2023-01-08T01:33:28;96183.56;;;0.89;100.00
11676;BME280;5894;42.768;23.404;2023-01-08T01:36:02;96216.22;;;1.20;100.00
11676;BME280;5894;42.768;23.404;2023-01-08T01:38:29;96179.03;;;0.96;100.00
11676;BME280;5894;42.768;23.404;2023-01-08T01:40:56;96214.19;;;1.22;100.00
11676;BME280;5894;42.768;23.404;2023-01-08T01:43:37;96201.53;;;1.14;100.00
11676;BME280;5894;42.768;23.404;2023-01-08T01:46:35;96217.22;;;1.19;100.00
11676;BME280;5894;42.768;23.404;2023-01-08T01:49:06;96201.53;;;1.14;100.00
11676;BME280;5894;42.768;23.404;2023-01-08T01:51:34;96174.97;;;0.89;100.00
11676;BME280;5894;42.768;23.404;2023-01-08T01:54:03;96197.13;;;1.03;100.00
11676;BME280;5894;42.768;23.404;2023-01-08T01:56:33;96204.78;;;1.09;100.00
11676;BME280;5894;42.768;23.404;2023-01-08T01:59:00;96201.41;;;1.09;100.00
11676;BME280;5894;42.768;23.404;2023-01-08T02:01:29;96204.22;;;1.07;100.00
11676;BME280;5894;42.768;23.404;2023-01-08T02:03:57;96196.66;;;1.06;100.00
11676;BME280;5894;42.768;23.404;2023-01-08T02:06:33;96191.34;;;1.01;100.00
11676;BME280;5894;42.768;23.404;2023-01-08T02:09:03;96145.41;;;0.78;100.00
11676;BME280;5894;42.768;23.404;2023-01-08T02:11:42;96197.66;;;1.05;100.00
11676;BME280;5894;42.768;23.404;2023-01-08T02:14:15;96182.22;;;0.98;100.00
11676;BME280;5894;42.768;23.404;2023-01-08T02:16:48;96068.28;;;0.20;100.00
11676;BME280;5894;42.768;23.404;2023-01-08T02:19:31;96191.44;;;0.94;100.00
11676;BME280;5894;42.768;23.404;2023-01-08T02:22:08;96194.03;;;0.94;100.00
11676;BME280;5894;42.768;23.404;2023-01-08T02:24:52;96188.31;;;0.92;100.00
11676;BME280;5894;42.768;23.404;2023-01-08T02:27:24;96185.94;;;0.91;100.00
11676;BME280;5894;42.768;23.404;2023-01-08T02:29:54;96189.19;;;0.86;100.00
11676;BME280;5894;42.768;23.404;2023-01-08T02:32:25;96195.19;;;0.87;100.00
11676;BME280;5894;42.768;23.404;2023-01-08T02:34:52;96175.97;;;0.64;100.00
11676;BME280;5894;42.768;23.404;2023-01-08T02:37:19;96133.06;;;0.50;100.00
11676;BME280;5894;42.768;23.404;2023-01-08T02:39:57;96174.16;;;0.65;100.00
11676;BME280;5894;42.768;23.404;2023-01-08T02:42:35;96185.69;;;0.69;100.00
11676;BME280;5894;42.768;23.404;2023-01-08T02:45:13;96181.16;;;0.64;100.00
11676;BME280;5894;42.768;23.404;2023-01-08T02:47:45;96185.47;;;0.70;100.00
11676;BME280;5894;42.768;23.404;2023-01-08T02:50:20;96185.00;;;0.73;100.00
11676;BME280;5894;42.768;23.404;2023-01-08T02:52:55;96184.19;;;0.73;100.00
11676;BME280;5894;42.768;23.404;2023-01-08T02:55:27;96173.72;;;0.68;100.00
11676;BME280;5894;42.768;23.404;2023-01-08T02:57:56;96181.94;;;0.65;100.00
11676;BME280;5894;42.768;23.404;2023-01-08T03:00:25;96179.56;;;0.63;100.00
11676;BME280;5894;42.768;23.404;2023-01-08T03:03:00;96143.41;;;0.27;100.00
11676;BME280;5894;42.768;23.404;2023-01-08T03:05:30;96181.84;;;0.60;100.00
11676;BME280;5894;42.768;23.404;2023-01-08T03:07:58;96187.13;;;0.65;100.00
11676;BME280;5894;42.768;23.404;2023-01-08T03:10:28;96172.09;;;0.55;100.00
11676;BME280;5894;42.768;23.404;2023-01-08T03:13:00;96162.81;;;0.36;100.00
11676;BME280;5894;42.768;23.404;2023-01-08T03:15:31;96178.53;;;0.41;100.00
11676;BME280;5894;42.768;23.404;2023-01-08T03:18:04;96182.50;;;0.55;100.00
11676;BME280;5894;42.768;23.404;2023-01-08T03:20:34;96176.63;;;0.60;100.00
11676;BME280;5894;42.768;23.404;2023-01-08T03:23:05;96131.78;;;0.29;100.00
11676;BME280;5894;42.768;23.404;2023-01-08T03:25:36;96170.53;;;0.13;100.00
11676;BME280;5894;42.768;23.404;2023-01-08T03:28:08;96180.16;;;0.24;100.00
11676;BME280;5894;42.768;23.404;2023-01-08T03:30:39;96120.00;;;-0.26;100.00
11676;BME280;5894;42.768;23.404;2023-01-08T03:33:08;96113.25;;;-0.46;100.00
11676;BME280;5894;42.768;23.404;2023-01-08T03:35:39;96179.94;;;-0.05;100.00
11676;BME280;5894;42.768;23.404;2023-01-08T03:38:12;96187.97;;;0.06;100.00
11676;BME280;5894;42.768;23.404;2023-01-08T03:40:43;96184.81;;;0.04;100.00
11676;BME280;5894;42.768;23.404;2023-01-08T03:43:12;96186.19;;;0.06;100.00
11676;BME280;5894;42.768;23.404;2023-01-08T03:45:45;96190.56;;;0.06;100.00
11676;BME280;5894;42.768;23.404;2023-01-08T03:48:14;96182.00;;;0.05;100.00
11676;BME280;5894;42.768;23.404;2023-01-08T03:50:41;96183.41;;;0.19;100.00
11676;BME280;5894;42.768;23.404;2023-01-08T03:53:08;96171.84;;;0.04;100.00
11676;BME280;5894;42.768;23.404;2023-01-08T03:55:35;96183.63;;;0.18;100.00
11676;BME280;5894;42.768;23.404;2023-01-08T03:58:02;96186.75;;;0.08;100.00
11676;BME280;5894;42.768;23.404;2023-01-08T04:00:30;96161.31;;;-0.13;100.00
11676;BME280;5894;42.768;23.404;2023-01-08T04:02:57;96122.69;;;-0.33;100.00
11676;BME280;5894;42.768;23.404;2023-01-08T04:05:23;96168.13;;;-0.19;100.00
11676;BME280;5894;42.768;23.404;2023-01-08T04:07:54;96190.94;;;0.09;100.00
11676;BME280;5894;42.768;23.404;2023-01-08T04:10:20;96153.75;;;-0.15;100.00
11676;BME280;5894;42.768;23.404;2023-01-08T04:12:47;96164.22;;;-0.21;100.00
11676;BME280;5894;42.768;23.404;2023-01-08T04:15:14;96190.41;;;-0.11;100.00
11676;BME280;5894;42.768;23.404;2023-01-08T04:17:42;96192.88;;;-0.34;100.00
11676;BME280;5894;42.768;23.404;2023-01-08T04:20:10;96190.34;;;-0.41;100.00
11676;BME280;5894;42.768;23.404;2023-01-08T04:22:37;96174.50;;;-0.69;100.00
11676;BME280;5894;42.768;23.404;2023-01-08T04:25:04;96195.38;;;-0.46;100.00
11676;BME280;5894;42.768;23.404;2023-01-08T04:27:31;96193.66;;;-0.52;100.00
11676;BME280;5894;42.768;23.404;2023-01-08T04:29:57;96195.47;;;-0.34;100.00
11676;BME280;5894;42.768;23.404;2023-01-08T04:32:24;96188.69;;;-0.35;100.00
11676;BME280;5894;42.768;23.404;2023-01-08T04:34:52;96194.25;;;-0.32;100.00
11676;BME280;5894;42.768;23.404;2023-01-08T04:37:19;96191.84;;;-0.33;100.00
11676;BME280;5894;42.768;23.404;2023-01-08T04:39:46;96193.84;;;-0.17;100.00
11676;BME280;5894;42.768;23.404;2023-01-08T04:42:13;96190.91;;;-0.21;100.00
11676;BME280;5894;42.768;23.404;2023-01-08T04:44:39;96179.97;;;-0.41;100.00
11676;BME280;5894;42.768;23.404;2023-01-08T04:47:06;96195.66;;;-0.36;100.00
11676;BME280;5894;42.768;23.404;2023-01-08T04:49:33;96196.47;;;-0.35;100.00
11676;BME280;5894;42.768;23.404;2023-01-08T04:52:01;96186.72;;;-0.40;100.00
11676;BME280;5894;42.768;23.404;2023-01-08T04:54:28;96203.56;;;-0.31;100.00
11676;BME280;5894;42.768;23.404;2023-01-08T04:56:55;96080.34;;;-1.12;100.00
11676;BME280;5894;42.768;23.404;2023-01-08T04:59:21;96197.16;;;-0.28;100.00
11676;BME280;5894;42.768;23.404;2023-01-08T05:01:48;96189.78;;;-0.43;100.00
11676;BME280;5894;42.768;23.404;2023-01-08T05:04:15;96209.13;;;-0.27;100.00
11676;BME280;5894;42.768;23.404;2023-01-08T05:06:42;96203.22;;;-0.34;100.00
11676;BME280;5894;42.768;23.404;2023-01-08T05:09:10;96186.72;;;-0.40;100.00
11676;BME280;5894;42.768;23.404;2023-01-08T05:11:37;96200.84;;;-0.36;100.00
11676;BME280;5894;42.768;23.404;2023-01-08T05:14:04;96203.94;;;-0.46;100.00
11676;BME280;5894;42.768;23.404;2023-01-08T05:16:30;96152.78;;;-0.68;100.00
11676;BME280;5894;42.768;23.404;2023-01-08T05:18:57;96204.09;;;-0.41;100.00
11676;BME280;5894;42.768;23.404;2023-01-08T05:21:24;96199.56;;;-0.45;100.00
11676;BME280;5894;42.768;23.404;2023-01-08T05:23:51;96202.94;;;-0.26;100.00
11676;BME280;5894;42.768;23.404;2023-01-08T05:26:19;96210.28;;;-0.42;100.00
11676;BME280;5894;42.768;23.404;2023-01-08T05:28:46;96210.78;;;-0.51;100.00
11676;BME280;5894;42.768;23.404;2023-01-08T05:31:13;96196.44;;;-0.72;100.00
11676;BME280;5894;42.768;23.404;2023-01-08T05:33:40;96209.53;;;-0.85;100.00
11676;BME280;5894;42.768;23.404;2023-01-08T05:36:08;96203.38;;;-1.09;100.00
11676;BME280;5894;42.768;23.404;2023-01-08T05:38:36;96204.06;;;-1.20;100.00
11676;BME280;5894;42.768;23.404;2023-01-08T05:41:03;96192.81;;;-1.07;100.00
11676;BME280;5894;42.768;23.404;2023-01-08T05:43:32;96185.06;;;-1.14;100.00
11676;BME280;5894;42.768;23.404;2023-01-08T05:45:59;96206.00;;;-0.91;100.00
11676;BME280;5894;42.768;23.404;2023-01-08T05:48:27;96197.22;;;-0.90;100.00
11676;BME280;5894;42.768;23.404;2023-01-08T05:50:54;96211.56;;;-0.69;100.00
11676;BME280;5894;42.768;23.404;2023-01-08T05:53:21;96201.63;;;-0.72;100.00
11676;BME280;5894;42.768;23.404;2023-01-08T05:55:48;96201.63;;;-0.72;100.00
11676;BME280;5894;42.768;23.404;2023-01-08T05:58:15;96205.38;;;-0.68;100.00
11676;BME280;5894;42.768;23.404;2023-01-08T06:00:45;96170.91;;;-0.87;100.00
11676;BME280;5894;42.768;23.404;2023-01-08T06:03:12;96205.53;;;-0.63;100.00
11676;BME280;5894;42.768;23.404;2023-01-08T06:05:40;96206.47;;;-0.57;100.00
11676;BME280;5894;42.768;23.404;2023-01-08T06:08:07;96207.84;;;-0.55;100.00
11676;BME280;5894;42.768;23.404;2023-01-08T06:10:36;96208.13;;;-0.45;100.00
11676;BME280;5894;42.768;23.404;2023-01-08T06:13:05;96200.47;;;-0.40;100.00
11676;BME280;5894;42.768;23.404;2023-01-08T06:15:32;96213.38;;;-0.33;100.00
11676;BME280;5894;42.768;23.404;2023-01-08T06:18:02;96212.72;;;-0.28;100.00
11676;BME280;5894;42.768;23.404;2023-01-08T06:20:29;96201.84;;;-0.37;100.00
11676;BME280;5894;42.768;23.404;2023-01-08T06:22:55;96187.09;;;-0.37;100.00
11676;BME280;5894;42.768;23.404;2023-01-08T06:25:22;96227.13;;;-0.14;100.00
11676;BME280;5894;42.768;23.404;2023-01-08T06:27:50;96231.88;;;-0.11;100.00
11676;BME280;5894;42.768;23.404;2023-01-08T06:30:17;96229.94;;;-0.16;100.00
11676;BME280;5894;42.768;23.404;2023-01-08T06:32:44;96227.91;;;-0.14;100.00
11676;BME280;5894;42.768;23.404;2023-01-08T06:35:12;96193.06;;;-0.36;100.00
11676;BME280;5894;42.768;23.404;2023-01-08T06:37:38;96208.91;;;-0.44;100.00
11676;BME280;5894;42.768;23.404;2023-01-08T06:40:06;96205.41;;;-0.31;100.00
11676;BME280;5894;42.768;23.404;2023-01-08T06:42:33;96240.16;;;-0.21;100.00
11676;BME280;5894;42.768;23.404;2023-01-08T06:45:00;96174.59;;;-0.58;100.00
11676;BME280;5894;42.768;23.404;2023-01-08T06:47:26;96233.69;;;-0.12;100.00
11676;BME280;5894;42.768;23.404;2023-01-08T06:49:53;96234.97;;;-0.03;100.00
11676;BME280;5894;42.768;23.404;2023-01-08T06:52:21;96237.84;;;0.08;100.00
11676;BME280;5894;42.768;23.404;2023-01-08T06:54:48;96237.16;;;0.12;100.00
11676;BME280;5894;42.768;23.404;2023-01-08T06:57:15;96143.19;;;-0.50;100.00
11676;BME280;5894;42.768;23.404;2023-01-08T06:59:41;96185.31;;;-0.36;100.00
11676;BME280;5894;42.768;23.404;2023-01-08T07:02:12;96257.63;;;0.20;100.00
11676;BME280;5894;42.768;23.404;2023-01-08T07:04:39;96257.91;;;0.12;100.00
11676;BME280;5894;42.768;23.404;2023-01-08T07:07:06;96265.63;;;0.19;100.00
11676;BME280;5894;42.768;23.404;2023-01-08T07:09:34;96261.25;;;0.19;100.00
11676;BME280;5894;42.768;23.404;2023-01-08T07:12:01;96258.91;;;0.11;100.00
11676;BME280;5894;42.768;23.404;2023-01-08T07:14:27;96192.25;;;-0.18;100.00
11676;BME280;5894;42.768;23.404;2023-01-08T07:16:54;96253.25;;;0.03;100.00
11676;BME280;5894;42.768;23.404;2023-01-08T07:19:21;96239.00;;;-0.07;100.00
11676;BME280;5894;42.768;23.404;2023-01-08T07:21:48;96259.09;;;-0.02;100.00
11676;BME280;5894;42.768;23.404;2023-01-08T07:24:14;96257.84;;;0.00;100.00
11676;BME280;5894;42.768;23.404;2023-01-08T07:26:43;96252.44;;;0.02;100.00
11676;BME280;5894;42.768;23.404;2023-01-08T07:29:09;96248.63;;;0.05;100.00
11676;BME280;5894;42.768;23.404;2023-01-08T07:31:36;96258.28;;;0.16;100.00
11676;BME280;5894;42.768;23.404;2023-01-08T07:34:03;96245.16;;;0.11;100.00
11676;BME280;5894;42.768;23.404;2023-01-08T07:36:30;96261.25;;;0.19;100.00
11676;BME280;5894;42.768;23.404;2023-01-08T07:38:57;96262.44;;;0.17;100.00
11676;BME280;5894;42.768;23.404;2023-01-08T07:41:25;96262.56;;;0.22;100.00
11676;BME280;5894;42.768;23.404;2023-01-08T07:43:53;96262.56;;;0.22;100.00
11676;BME280;5894;42.768;23.404;2023-01-08T07:46:20;96272.94;;;0.22;100.00
11676;BME280;5894;42.768;23.404;2023-01-08T07:48:47;96273.91;;;0.27;100.00
11676;BME280;5894;42.768;23.404;2023-01-08T07:51:15;96119.97;;;-0.56;100.00
11676;BME280;5894;42.768;23.404;2023-01-08T07:53:42;96242.94;;;0.14;100.00
11676;BME280;5894;42.768;23.404;2023-01-08T07:56:10;96264.31;;;0.28;100.00
11676;BME280;5894;42.768;23.404;2023-01-08T07:58:37;96236.53;;;0.17;100.00
11676;BME280;5894;42.768;23.404;2023-01-08T08:01:07;96154.78;;;-0.34;100.00
11676;BME280;5894;42.768;23.404;2023-01-08T08:03:35;96268.34;;;0.54;100.00
11676;BME280;5894;42.768;23.404;2023-01-08T08:06:03;96267.47;;;0.60;100.00
11676;BME280;5894;42.768;23.404;2023-01-08T08:08:30;96151.16;;;-0.15;100.00
11676;BME280;5894;42.768;23.404;2023-01-08T08:10:56;96266.25;;;0.74;100.00
11676;BME280;5894;42.768;23.404;2023-01-08T08:13:26;96149.44;;;0.09;100.00
11676;BME280;5894;42.768;23.404;2023-01-08T08:15:52;96263.03;;;0.90;100.00
11676;BME280;5894;42.768;23.404;2023-01-08T08:18:21;96264.41;;;1.04;100.00
11676;BME280;5894;42.768;23.404;2023-01-08T08:20:47;96270.53;;;1.10;100.00
11676;BME280;5894;42.768;23.404;2023-01-08T08:23:16;96265.78;;;1.19;100.00
11676;BME280;5894;42.768;23.404;2023-01-08T08:25:43;96271.78;;;1.19;100.00
11676;BME280;5894;42.768;23.404;2023-01-08T08:28:11;96262.97;;;1.20;100.00
11676;BME280;5894;42.768;23.404;2023-01-08T08:30:38;96284.13;;;1.24;100.00
11676;BME280;5894;42.768;23.404;2023-01-08T08:33:06;96272.94;;;1.23;100.00
11676;BME280;5894;42.768;23.404;2023-01-08T08:35:34;96269.78;;;1.33;100.00
11676;BME280;5894;42.768;23.404;2023-01-08T08:38:01;96270.22;;;1.41;100.00
11676;BME280;5894;42.768;23.404;2023-01-08T08:40:28;96126.50;;;0.48;100.00
11676;BME280;5894;42.768;23.404;2023-01-08T08:42:55;96269.19;;;1.42;100.00
11676;BME280;5894;42.768;23.404;2023-01-08T08:45:22;96252.81;;;1.42;100.00
11676;BME280;5894;42.768;23.404;2023-01-08T08:47:49;96240.97;;;1.34;100.00
11676;BME280;5894;42.768;23.404;2023-01-08T08:50:17;96262.06;;;1.61;100.00
11676;BME280;5894;42.768;23.404;2023-01-08T08:52:45;96263.09;;;1.60;100.00
11676;BME280;5894;42.768;23.404;2023-01-08T08:55:13;96252.81;;;1.65;100.00
11676;BME280;5894;42.768;23.404;2023-01-08T08:57:42;96260.56;;;1.77;100.00
11676;BME280;5894;42.768;23.404;2023-01-08T09:00:10;96254.91;;;1.80;100.00
11676;BME280;5894;42.768;23.404;2023-01-08T09:02:37;96253.13;;;1.80;100.00
11676;BME280;5894;42.768;23.404;2023-01-08T09:05:04;96258.97;;;1.88;100.00
11676;BME280;5894;42.768;23.404;2023-01-08T09:07:31;96257.16;;;1.88;100.00
11676;BME280;5894;42.768;23.404;2023-01-08T09:09:59;96246.53;;;1.90;100.00
11676;BME280;5894;42.768;23.404;2023-01-08T09:12:26;96245.94;;;1.99;100.00
11676;BME280;5894;42.768;23.404;2023-01-08T09:14:53;96231.69;;;2.02;100.00
11676;BME280;5894;42.768;23.404;2023-01-08T09:17:21;96237.91;;;2.01;100.00
11676;BME280;5894;42.768;23.404;2023-01-08T09:19:49;96238.22;;;2.16;100.00
11676;BME280;5894;42.768;23.404;2023-01-08T09:22:16;96241.63;;;2.16;100.00
11676;BME280;5894;42.768;23.404;2023-01-08T09:24:43;96240.34;;;2.19;100.00
11676;BME280;5894;42.768;23.404;2023-01-08T09:27:11;96215.94;;;2.08;100.00
11676;BME280;5894;42.768;23.404;2023-01-08T09:29:38;96226.41;;;2.25;100.00
11676;BME280;5894;42.768;23.404;2023-01-08T09:32:05;96215.44;;;2.23;100.00
11676;BME280;5894;42.768;23.404;2023-01-08T09:34:32;96219.47;;;2.31;100.00
11676;BME280;5894;42.768;23.404;2023-01-08T09:37:00;96212.09;;;2.39;100.00
11676;BME280;5894;42.768;23.404;2023-01-08T09:39:27;96163.00;;;2.14;100.00
11676;BME280;5894;42.768;23.404;2023-01-08T09:41:54;96208.09;;;2.48;100.00
11676;BME280;5894;42.768;23.404;2023-01-08T09:44:26;96204.56;;;2.54;100.00
11676;BME280;5894;42.768;23.404;2023-01-08T09:46:54;96166.41;;;2.32;100.00
11676;BME280;5894;42.768;23.404;2023-01-08T09:49:25;96204.38;;;2.61;100.00
11676;BME280;5894;42.768;23.404;2023-01-08T09:51:54;96087.66;;;1.91;100.00
11676;BME280;5894;42.768;23.404;2023-01-08T09:54:23;96188.31;;;2.64;100.00
11676;BME280;5894;42.768;23.404;2023-01-08T09:56:51;96181.63;;;2.68;100.00
11676;BME280;5894;42.768;23.404;2023-01-08T09:59:19;96176.41;;;2.68;100.00
11676;BME280;5894;42.768;23.404;2023-01-08T10:01:48;96178.38;;;2.78;100.00
11676;BME280;5894;42.768;23.404;2023-01-08T10:04:18;96177.09;;;2.80;100.00
11676;BME280;5894;42.768;23.404;2023-01-08T10:06:49;96150.66;;;2.72;100.00
11676;BME280;5894;42.768;23.404;2023-01-08T10:09:25;96171.34;;;2.78;100.00
11676;BME280;5894;42.768;23.404;2023-01-08T10:11:54;96147.53;;;2.70;100.00
11676;BME280;5894;42.768;23.404;2023-01-08T10:14:23;96045.69;;;2.16;100.00
11676;BME280;5894;42.768;23.404;2023-01-08T10:16:55;96157.63;;;3.00;100.00
11676;BME280;5894;42.768;23.404;2023-01-08T10:19:23;96156.03;;;2.99;100.00
11676;BME280;5894;42.768;23.404;2023-01-08T10:21:52;96145.75;;;3.09;100.00
11676;BME280;5894;42.768;23.404;2023-01-08T10:24:30;96144.78;;;3.15;100.00
11676;BME280;5894;42.768;23.404;2023-01-08T10:27:05;96141.25;;;3.21;100.00
11676;BME280;5894;42.768;23.404;2023-01-08T10:29:33;96088.84;;;3.01;100.00
11676;BME280;5894;42.768;23.404;2023-01-08T10:32:07;96124.75;;;3.37;100.00
11676;BME280;5894;42.768;23.404;2023-01-08T10:34:42;96123.19;;;3.36;100.00
11676;BME280;5894;42.768;23.404;2023-01-08T10:37:14;96092.38;;;3.33;100.00
11676;BME280;5894;42.768;23.404;2023-01-08T10:39:45;96104.03;;;3.47;100.00
11676;BME280;5894;42.768;23.404;2023-01-08T10:42:15;96115.28;;;3.75;100.00
11676;BME280;5894;42.768;23.404;2023-01-08T10:44:52;96112.25;;;3.83;100.00
11676;BME280;5894;42.768;23.404;2023-01-08T10:47:21;96105.81;;;3.90;100.00
11676;BME280;5894;42.768;23.404;2023-01-08T10:49:49;96097.06;;;4.01;100.00
11676;BME280;5894;42.768;23.404;2023-01-08T10:52:27;96093.78;;;4.16;100.00
11676;BME280;5894;42.768;23.404;2023-01-08T10:54:56;96092.81;;;4.22;100.00
11676;BME280;5894;42.768;23.404;2023-01-08T10:57:25;96067.41;;;4.13;100.00
11676;BME280;5894;42.768;23.404;2023-01-08T10:59:52;96080.88;;;4.31;100.00
11676;BME280;5894;42.768;23.404;2023-01-08T11:02:35;96082.00;;;4.40;100.00
11676;BME280;5894;42.768;23.404;2023-01-08T11:05:04;96077.00;;;4.39;100.00
11676;BME280;5894;42.768;23.404;2023-01-08T11:07:33;96082.56;;;4.48;100.00
11676;BME280;5894;42.768;23.404;2023-01-08T11:10:02;96070.84;;;4.50;100.00
11676;BME280;5894;42.768;23.404;2023-01-08T11:12:33;96072.22;;;4.63;100.00
11676;BME280;5894;42.768;23.404;2023-01-08T11:15:02;96069.19;;;4.76;100.00
11676;BME280;5894;42.768;23.404;2023-01-08T11:17:29;96065.06;;;4.85;100.00
11676;BME280;5894;42.768;23.404;2023-01-08T11:20:08;96053.81;;;4.85;100.00
11676;BME280;5894;42.768;23.404;2023-01-08T11:22:35;96069.09;;;5.03;100.00
11676;BME280;5894;42.768;23.404;2023-01-08T11:25:04;96048.94;;;4.98;100.00
11676;BME280;5894;42.768;23.404;2023-01-08T11:27:38;96060.00;;;5.21;100.00
11676;BME280;5894;42.768;23.404;2023-01-08T11:30:11;96063.19;;;5.28;100.00
11676;BME280;5894;42.768;23.404;2023-01-08T11:32:42;96058.22;;;5.26;100.00
11676;BME280;5894;42.768;23.404;2023-01-08T11:35:16;96057.72;;;5.34;100.00
11676;BME280;5894;42.768;23.404;2023-01-08T11:37:49;96050.44;;;5.41;100.00
11676;BME280;5894;42.768;23.404;2023-01-08T11:40:20;96046.56;;;5.49;100.00
11676;BME280;5894;42.768;23.404;2023-01-08T11:43:02;96032.69;;;5.53;100.00
11676;BME280;5894;42.768;23.404;2023-01-08T11:45:39;96036.63;;;5.61;100.00
11676;BME280;5894;42.768;23.404;2023-01-08T11:48:27;96015.97;;;5.65;100.00
11676;BME280;5894;42.768;23.404;2023-01-08T11:51:13;96024.13;;;5.78;100.00
11676;BME280;5894;42.768;23.404;2023-01-08T11:53:46;96025.69;;;5.84;100.00
11676;BME280;5894;42.768;23.404;2023-01-08T11:56:20;96034.66;;;5.99;100.00
11676;BME280;5894;42.768;23.404;2023-01-08T11:59:05;96013.44;;;6.05;100.00
11676;BME280;5894;42.768;23.404;2023-01-08T12:01:49;96005.56;;;5.95;100.00
11676;BME280;5894;42.768;23.404;2023-01-08T12:04:44;96023.16;;;6.20;100.00
11676;BME280;5894;42.768;23.404;2023-01-08T12:07:23;96018.69;;;6.25;100.00
11676;BME280;5894;42.768;23.404;2023-01-08T12:09:57;96012.13;;;6.28;100.00
11676;BME280;5894;42.768;23.404;2023-01-08T12:12:38;96009.25;;;6.35;100.00
11676;BME280;5894;42.768;23.404;2023-01-08T12:15:13;96006.13;;;6.43;100.00
11676;BME280;5894;42.768;23.404;2023-01-08T12:18:06;96004.78;;;6.50;100.00
11676;BME280;5894;42.768;23.404;2023-01-08T12:20:44;95997.19;;;6.54;100.00
11676;BME280;5894;42.768;23.404;2023-01-08T12:23:24;96003.47;;;6.63;100.00
11676;BME280;5894;42.768;23.404;2023-01-08T12:26:11;95948.22;;;6.39;100.00
11676;BME280;5894;42.768;23.404;2023-01-08T12:29:08;95997.38;;;6.78;100.00
11676;BME280;5894;42.768;23.404;2023-01-08T12:31:57;95995.56;;;6.78;100.00
11676;BME280;5894;42.768;23.404;2023-01-08T12:34:37;95993.44;;;6.75;100.00
11676;BME280;5894;42.768;23.404;2023-01-08T12:37:13;95982.94;;;6.85;100.00
11676;BME280;5894;42.768;23.404;2023-01-08T12:39:46;95974.31;;;6.80;100.00
11676;BME280;5894;42.768;23.404;2023-01-08T12:42:19;95988.19;;;6.95;100.00
11676;BME280;5894;42.768;23.404;2023-01-08T12:44:51;95981.59;;;6.98;100.00
11676;BME280;5894;42.768;23.404;2023-01-08T12:47:22;95988.66;;;7.03;100.00
11676;BME280;5894;42.768;23.404;2023-01-08T12:50:05;95891.88;;;6.42;100.00
11676;BME280;5894;42.768;23.404;2023-01-08T12:52:39;95976.53;;;7.17;100.00
11676;BME280;5894;42.768;23.404;2023-01-08T12:55:16;95974.69;;;7.17;100.00
11676;BME280;5894;42.768;23.404;2023-01-08T12:57:52;95981.72;;;7.32;100.00
11676;BME280;5894;42.768;23.404;2023-01-08T13:00:26;95971.22;;;7.37;100.00
11676;BME280;5894;42.768;23.404;2023-01-08T13:02:58;95949.97;;;7.33;100.00
11676;BME280;5894;42.768;23.404;2023-01-08T13:05:31;95967.44;;;7.53;100.00
11676;BME280;5894;42.768;23.404;2023-01-08T13:07:59;95963.78;;;7.54;100.00
11676;BME280;5894;42.768;23.404;2023-01-08T13:10:34;95962.72;;;7.55;100.00